Hauptseite
METAR-TAF:

METAR-TAF

Flughäfen :

Flughafen Waterford

Waterford, Irland

Breite: 52-11-14N, Länge: 7-05-13W, Höhe: 36 m

Beobachtung

Neuester Wetterbericht von vor 4 Stunden und 1 Minuten, um 20:30 UTC
Wind 4 kt aus West/Südwest, variierte zwischen Süd/Südwest und West/Nordwest
Temperatur 13°C
Luftfeuchtigkeit 82%
Luftdruck 1005 hPa
Sichtweite 10 km oder mehr
Leicht bewölkt in der Höhe von 4700 ft

METAR: EIWF 162030Z 25004KT 210V300 9999 FEW047 13/10 Q1005

Zeit: 01:31 (00:31 UTC)

Prognose

Neuester Wetterbericht von vor 1 Stunde und 31 Minuten, um 23:00 UTC
Gültige Prognose vom 17 um 00 UTC bis 17 um 09 UTC
Wind 5 kt aus Nord/Nordwest
Sichtweite 10 km oder mehr
Aufgelockert bewölkt in der Höhe von 4000 ft

TAF: EIWF 162300Z 1700/1709 34005KT 9999 SCT040

Wetterbeobachtungen und Prognosen von mehr als 4000 Flughäfen (METAR und TAF Bericht).

Die verfügbaren Stationen werden durch gelbe und rote Markierungen auf der Karte dargestellt.

Führen Sie die Maus auf sie, um den Namen der Station zu sehen.

Darauf klicken, um die Beobachtung von Wetterbeobachtungen und Prognosen zu sehen.

Um die Karte zu ändern : klicken Sie auf den grünen Tasten mit einem schwarzen Kreuz Zum Vergrößern, auf den grünen Button mit einem Gedankenstrich zu verkleinern, oder auf die grünen Pfeile für benachbarte Karten.


METAR-TAF: